sensor_id;sensor_type;location;lat;lon;timestamp;P1;durP1;ratioP1;P2;durP2;ratioP2
14789;SDS011;7486;51.010;10.366;2022-08-20T00:02:09;3.33;;;2.83;;
14789;SDS011;7486;51.010;10.366;2022-08-20T00:04:36;3.60;;;3.00;;
14789;SDS011;7486;51.010;10.366;2022-08-20T00:07:05;3.30;;;3.00;;
14789;SDS011;7486;51.010;10.366;2022-08-20T00:09:32;3.25;;;2.95;;
14789;SDS011;7486;51.010;10.366;2022-08-20T00:12:02;3.58;;;3.28;;
14789;SDS011;7486;51.010;10.366;2022-08-20T00:14:30;3.20;;;2.90;;
14789;SDS011;7486;51.010;10.366;2022-08-20T00:17:00;3.58;;;3.28;;
14789;SDS011;7486;51.010;10.366;2022-08-20T00:19:27;4.13;;;3.30;;
14789;SDS011;7486;51.010;10.366;2022-08-20T00:21:55;3.88;;;3.45;;
14789;SDS011;7486;51.010;10.366;2022-08-20T00:24:24;3.38;;;3.10;;
14789;SDS011;7486;51.010;10.366;2022-08-20T00:26:51;3.60;;;2.85;;
14789;SDS011;7486;51.010;10.366;2022-08-20T00:29:18;3.20;;;2.95;;
14789;SDS011;7486;51.010;10.366;2022-08-20T00:31:47;4.05;;;3.33;;
14789;SDS011;7486;51.010;10.366;2022-08-20T00:34:15;3.47;;;3.13;;
14789;SDS011;7486;51.010;10.366;2022-08-20T00:36:41;3.08;;;2.88;;
14789;SDS011;7486;51.010;10.366;2022-08-20T00:39:08;3.40;;;3.10;;
14789;SDS011;7486;51.010;10.366;2022-08-20T00:41:35;3.67;;;3.17;;
14789;SDS011;7486;51.010;10.366;2022-08-20T00:46:45;3.50;;;3.20;;
14789;SDS011;7486;51.010;10.366;2022-08-20T00:49:22;3.70;;;3.40;;
14789;SDS011;7486;51.010;10.366;2022-08-20T00:52:02;4.05;;;3.60;;
14789;SDS011;7486;51.010;10.366;2022-08-20T00:54:43;3.63;;;3.33;;
14789;SDS011;7486;51.010;10.366;2022-08-20T00:57:17;3.90;;;3.50;;
14789;SDS011;7486;51.010;10.366;2022-08-20T00:59:50;3.53;;;3.22;;
14789;SDS011;7486;51.010;10.366;2022-08-20T01:02:18;3.80;;;3.28;;
14789;SDS011;7486;51.010;10.366;2022-08-20T01:04:48;3.83;;;3.45;;
14789;SDS011;7486;51.010;10.366;2022-08-20T01:07:15;4.85;;;3.20;;
14789;SDS011;7486;51.010;10.366;2022-08-20T01:09:42;4.85;;;3.75;;
14789;SDS011;7486;51.010;10.366;2022-08-20T01:12:25;3.80;;;3.45;;
14789;SDS011;7486;51.010;10.366;2022-08-20T01:14:54;3.90;;;3.53;;
14789;SDS011;7486;51.010;10.366;2022-08-20T01:17:24;3.70;;;3.40;;
14789;SDS011;7486;51.010;10.366;2022-08-20T01:19:57;3.75;;;3.45;;
14789;SDS011;7486;51.010;10.366;2022-08-20T01:22:34;3.50;;;3.20;;
14789;SDS011;7486;51.010;10.366;2022-08-20T01:25:09;3.63;;;3.33;;
14789;SDS011;7486;51.010;10.366;2022-08-20T01:27:42;3.58;;;3.28;;
14789;SDS011;7486;51.010;10.366;2022-08-20T01:30:12;3.50;;;3.20;;
14789;SDS011;7486;51.010;10.366;2022-08-20T01:32:39;3.20;;;2.90;;
14789;SDS011;7486;51.010;10.366;2022-08-20T01:35:05;3.70;;;3.03;;
14789;SDS011;7486;51.010;10.366;2022-08-20T01:37:34;3.88;;;3.28;;
14789;SDS011;7486;51.010;10.366;2022-08-20T01:40:01;3.72;;;3.33;;
14789;SDS011;7486;51.010;10.366;2022-08-20T01:42:36;4.18;;;3.78;;
14789;SDS011;7486;51.010;10.366;2022-08-20T01:45:25;4.65;;;3.40;;
14789;SDS011;7486;51.010;10.366;2022-08-20T01:47:53;3.53;;;3.22;;
14789;SDS011;7486;51.010;10.366;2022-08-20T01:50:22;3.65;;;3.35;;
14789;SDS011;7486;51.010;10.366;2022-08-20T01:52:54;3.78;;;3.47;;
14789;SDS011;7486;51.010;10.366;2022-08-20T01:55:26;3.78;;;3.42;;
14789;SDS011;7486;51.010;10.366;2022-08-20T01:57:53;3.47;;;3.17;;
14789;SDS011;7486;51.010;10.366;2022-08-20T02:00:21;3.70;;;3.40;;
14789;SDS011;7486;51.010;10.366;2022-08-20T02:02:48;4.00;;;3.63;;
14789;SDS011;7486;51.010;10.366;2022-08-20T02:05:16;4.47;;;3.83;;
14789;SDS011;7486;51.010;10.366;2022-08-20T02:07:43;3.65;;;3.35;;
14789;SDS011;7486;51.010;10.366;2022-08-20T02:10:11;3.80;;;3.50;;
14789;SDS011;7486;51.010;10.366;2022-08-20T02:12:40;4.00;;;3.60;;
14789;SDS011;7486;51.010;10.366;2022-08-20T02:15:08;3.70;;;3.20;;
14789;SDS011;7486;51.010;10.366;2022-08-20T02:17:36;4.65;;;2.92;;
14789;SDS011;7486;51.010;10.366;2022-08-20T02:20:09;3.42;;;3.13;;
14789;SDS011;7486;51.010;10.366;2022-08-20T02:22:50;4.00;;;3.45;;
14789;SDS011;7486;51.010;10.366;2022-08-20T02:25:22;4.10;;;3.70;;
14789;SDS011;7486;51.010;10.366;2022-08-20T02:27:51;4.15;;;3.75;;
14789;SDS011;7486;51.010;10.366;2022-08-20T02:30:21;4.97;;;3.95;;
14789;SDS011;7486;51.010;10.366;2022-08-20T02:32:54;3.80;;;3.50;;
14789;SDS011;7486;51.010;10.366;2022-08-20T02:35:24;3.53;;;3.22;;
14789;SDS011;7486;51.010;10.366;2022-08-20T02:37:52;3.38;;;3.15;;
14789;SDS011;7486;51.010;10.366;2022-08-20T02:40:21;3.40;;;3.10;;
14789;SDS011;7486;51.010;10.366;2022-08-20T02:42:59;3.63;;;3.33;;
14789;SDS011;7486;51.010;10.366;2022-08-20T02:45:27;3.75;;;3.40;;
14789;SDS011;7486;51.010;10.366;2022-08-20T02:47:56;3.30;;;3.10;;
14789;SDS011;7486;51.010;10.366;2022-08-20T02:50:24;3.50;;;3.20;;
14789;SDS011;7486;51.010;10.366;2022-08-20T02:52:51;3.90;;;3.50;;
14789;SDS011;7486;51.010;10.366;2022-08-20T02:55:19;7.75;;;3.50;;
14789;SDS011;7486;51.010;10.366;2022-08-20T02:57:57;4.30;;;3.67;;
14789;SDS011;7486;51.010;10.366;2022-08-20T03:00:25;3.85;;;3.45;;
14789;SDS011;7486;51.010;10.366;2022-08-20T03:02:57;4.97;;;3.95;;
14789;SDS011;7486;51.010;10.366;2022-08-20T03:05:24;3.85;;;3.47;;
14789;SDS011;7486;51.010;10.366;2022-08-20T03:07:51;3.63;;;3.30;;
14789;SDS011;7486;51.010;10.366;2022-08-20T03:10:25;3.65;;;3.30;;
14789;SDS011;7486;51.010;10.366;2022-08-20T03:12:55;4.20;;;3.80;;
14789;SDS011;7486;51.010;10.366;2022-08-20T03:15:22;3.88;;;3.58;;
14789;SDS011;7486;51.010;10.366;2022-08-20T03:17:49;4.00;;;3.63;;
14789;SDS011;7486;51.010;10.366;2022-08-20T03:20:15;4.20;;;3.80;;
14789;SDS011;7486;51.010;10.366;2022-08-20T03:22:47;4.10;;;3.70;;
14789;SDS011;7486;51.010;10.366;2022-08-20T03:25:14;4.13;;;3.78;;
14789;SDS011;7486;51.010;10.366;2022-08-20T03:27:42;3.85;;;3.55;;
14789;SDS011;7486;51.010;10.366;2022-08-20T03:30:12;3.80;;;3.50;;
14789;SDS011;7486;51.010;10.366;2022-08-20T03:32:40;3.75;;;3.45;;
14789;SDS011;7486;51.010;10.366;2022-08-20T03:35:08;3.80;;;3.50;;
14789;SDS011;7486;51.010;10.366;2022-08-20T03:37:37;4.53;;;3.05;;
14789;SDS011;7486;51.010;10.366;2022-08-20T03:40:10;3.97;;;3.67;;
14789;SDS011;7486;51.010;10.366;2022-08-20T03:42:40;3.53;;;3.22;;
14789;SDS011;7486;51.010;10.366;2022-08-20T03:45:08;3.83;;;3.53;;
14789;SDS011;7486;51.010;10.366;2022-08-20T03:47:36;5.15;;;3.55;;
14789;SDS011;7486;51.010;10.366;2022-08-20T03:50:05;4.00;;;3.60;;
14789;SDS011;7486;51.010;10.366;2022-08-20T03:52:32;3.90;;;3.50;;
14789;SDS011;7486;51.010;10.366;2022-08-20T03:54:59;3.70;;;3.40;;
14789;SDS011;7486;51.010;10.366;2022-08-20T03:57:26;4.88;;;3.50;;
14789;SDS011;7486;51.010;10.366;2022-08-20T03:59:53;3.97;;;3.58;;
14789;SDS011;7486;51.010;10.366;2022-08-20T04:02:24;4.60;;;4.20;;
14789;SDS011;7486;51.010;10.366;2022-08-20T04:04:50;5.35;;;4.38;;
14789;SDS011;7486;51.010;10.366;2022-08-20T04:07:19;4.82;;;4.30;;
14789;SDS011;7486;51.010;10.366;2022-08-20T04:09:48;5.80;;;4.63;;
14789;SDS011;7486;51.010;10.366;2022-08-20T04:12:15;4.80;;;4.40;;
14789;SDS011;7486;51.010;10.366;2022-08-20T04:14:41;5.93;;;4.45;;
14789;SDS011;7486;51.010;10.366;2022-08-20T04:17:09;5.40;;;4.90;;
14789;SDS011;7486;51.010;10.366;2022-08-20T04:19:38;4.55;;;4.15;;
14789;SDS011;7486;51.010;10.366;2022-08-20T04:22:05;4.70;;;4.30;;
14789;SDS011;7486;51.010;10.366;2022-08-20T04:24:33;5.15;;;4.72;;
14789;SDS011;7486;51.010;10.366;2022-08-20T04:27:00;5.22;;;4.72;;
14789;SDS011;7486;51.010;10.366;2022-08-20T04:29:28;5.18;;;4.50;;
14789;SDS011;7486;51.010;10.366;2022-08-20T04:31:58;5.13;;;4.63;;
14789;SDS011;7486;51.010;10.366;2022-08-20T04:34:27;5.45;;;4.38;;
14789;SDS011;7486;51.010;10.366;2022-08-20T04:36:53;4.47;;;4.07;;
14789;SDS011;7486;51.010;10.366;2022-08-20T04:39:21;5.10;;;4.60;;
14789;SDS011;7486;51.010;10.366;2022-08-20T04:41:48;4.88;;;4.47;;
14789;SDS011;7486;51.010;10.366;2022-08-20T04:44:15;6.63;;;5.05;;
14789;SDS011;7486;51.010;10.366;2022-08-20T04:46:42;5.13;;;4.68;;
14789;SDS011;7486;51.010;10.366;2022-08-20T04:49:09;5.18;;;4.78;;
14789;SDS011;7486;51.010;10.366;2022-08-20T04:51:36;6.07;;;4.88;;
14789;SDS011;7486;51.010;10.366;2022-08-20T04:54:03;5.10;;;4.70;;
14789;SDS011;7486;51.010;10.366;2022-08-20T04:56:31;5.95;;;4.80;;
14789;SDS011;7486;51.010;10.366;2022-08-20T04:59:00;6.60;;;5.43;;
14789;SDS011;7486;51.010;10.366;2022-08-20T05:01:27;6.35;;;5.32;;
14789;SDS011;7486;51.010;10.366;2022-08-20T05:03:55;6.57;;;5.82;;
14789;SDS011;7486;51.010;10.366;2022-08-20T05:06:23;8.65;;;5.30;;
14789;SDS011;7486;51.010;10.366;2022-08-20T05:08:53;5.80;;;5.18;;
14789;SDS011;7486;51.010;10.366;2022-08-20T05:11:22;6.07;;;5.47;;
14789;SDS011;7486;51.010;10.366;2022-08-20T05:14:02;5.93;;;5.43;;
14789;SDS011;7486;51.010;10.366;2022-08-20T05:16:35;6.38;;;5.50;;
14789;SDS011;7486;51.010;10.366;2022-08-20T05:19:03;6.60;;;5.90;;
14789;SDS011;7486;51.010;10.366;2022-08-20T05:21:31;6.88;;;6.28;;
14789;SDS011;7486;51.010;10.366;2022-08-20T05:23:58;6.97;;;6.32;;
14789;SDS011;7486;51.010;10.366;2022-08-20T05:26:25;7.10;;;6.40;;
14789;SDS011;7486;51.010;10.366;2022-08-20T05:28:51;9.27;;;6.55;;
14789;SDS011;7486;51.010;10.366;2022-08-20T05:31:25;6.47;;;5.88;;
14789;SDS011;7486;51.010;10.366;2022-08-20T05:34:05;7.22;;;6.57;;
14789;SDS011;7486;51.010;10.366;2022-08-20T05:36:46;7.57;;;6.78;;
14789;SDS011;7486;51.010;10.366;2022-08-20T05:39:19;7.68;;;6.90;;
14789;SDS011;7486;51.010;10.366;2022-08-20T05:41:48;8.32;;;7.05;;
14789;SDS011;7486;51.010;10.366;2022-08-20T05:44:15;8.38;;;7.47;;
14789;SDS011;7486;51.010;10.366;2022-08-20T05:46:43;7.70;;;7.00;;
14789;SDS011;7486;51.010;10.366;2022-08-20T05:49:12;8.82;;;7.93;;
14789;SDS011;7486;51.010;10.366;2022-08-20T05:51:41;10.65;;;8.65;;
14789;SDS011;7486;51.010;10.366;2022-08-20T05:54:08;8.18;;;7.43;;
14789;SDS011;7486;51.010;10.366;2022-08-20T05:56:35;8.23;;;7.43;;
14789;SDS011;7486;51.010;10.366;2022-08-20T05:59:03;8.82;;;7.45;;
14789;SDS011;7486;51.010;10.366;2022-08-20T06:01:32;9.80;;;8.80;;
14789;SDS011;7486;51.010;10.366;2022-08-20T06:04:00;10.45;;;8.07;;
14789;SDS011;7486;51.010;10.366;2022-08-20T06:06:27;10.75;;;9.23;;
14789;SDS011;7486;51.010;10.366;2022-08-20T06:09:10;11.80;;;10.00;;
14789;SDS011;7486;51.010;10.366;2022-08-20T06:11:37;10.63;;;9.52;;
14789;SDS011;7486;51.010;10.366;2022-08-20T06:14:04;11.60;;;10.40;;
14789;SDS011;7486;51.010;10.366;2022-08-20T06:16:31;12.73;;;9.88;;
14789;SDS011;7486;51.010;10.366;2022-08-20T06:18:58;11.85;;;10.23;;
14789;SDS011;7486;51.010;10.366;2022-08-20T06:21:28;12.75;;;11.55;;
14789;SDS011;7486;51.010;10.366;2022-08-20T06:23:55;10.85;;;9.65;;
14789;SDS011;7486;51.010;10.366;2022-08-20T06:26:26;11.85;;;10.35;;
14789;SDS011;7486;51.010;10.366;2022-08-20T06:28:55;12.27;;;10.82;;
14789;SDS011;7486;51.010;10.366;2022-08-20T06:31:23;11.52;;;10.32;;
14789;SDS011;7486;51.010;10.366;2022-08-20T06:33:49;15.95;;;10.82;;
14789;SDS011;7486;51.010;10.366;2022-08-20T06:36:16;11.48;;;10.27;;
14789;SDS011;7486;51.010;10.366;2022-08-20T06:38:44;11.98;;;10.77;;
14789;SDS011;7486;51.010;10.366;2022-08-20T06:41:11;11.95;;;10.68;;
14789;SDS011;7486;51.010;10.366;2022-08-20T06:43:39;11.27;;;9.85;;
14789;SDS011;7486;51.010;10.366;2022-08-20T06:46:05;11.18;;;10.00;;
14789;SDS011;7486;51.010;10.366;2022-08-20T06:48:32;12.43;;;9.40;;
14789;SDS011;7486;51.010;10.366;2022-08-20T06:50:59;11.88;;;10.68;;
14789;SDS011;7486;51.010;10.366;2022-08-20T06:53:26;12.63;;;10.68;;
14789;SDS011;7486;51.010;10.366;2022-08-20T06:55:54;15.25;;;11.00;;
14789;SDS011;7486;51.010;10.366;2022-08-20T06:58:23;13.18;;;11.77;;
14789;SDS011;7486;51.010;10.366;2022-08-20T07:01:04;12.63;;;10.57;;
14789;SDS011;7486;51.010;10.366;2022-08-20T07:03:36;14.63;;;12.30;;
14789;SDS011;7486;51.010;10.366;2022-08-20T07:06:22;16.77;;;11.55;;
14789;SDS011;7486;51.010;10.366;2022-08-20T07:08:49;16.45;;;11.88;;
14789;SDS011;7486;51.010;10.366;2022-08-20T07:11:16;15.45;;;11.98;;
14789;SDS011;7486;51.010;10.366;2022-08-20T07:13:42;15.43;;;12.00;;
14789;SDS011;7486;51.010;10.366;2022-08-20T07:16:09;14.48;;;11.73;;
14789;SDS011;7486;51.010;10.366;2022-08-20T07:18:36;13.30;;;11.82;;
14789;SDS011;7486;51.010;10.366;2022-08-20T07:21:03;14.88;;;12.45;;
14789;SDS011;7486;51.010;10.366;2022-08-20T07:23:29;13.65;;;12.25;;
14789;SDS011;7486;51.010;10.366;2022-08-20T07:25:56;15.75;;;13.70;;
14789;SDS011;7486;51.010;10.366;2022-08-20T07:28:24;15.85;;;12.93;;
14789;SDS011;7486;51.010;10.366;2022-08-20T07:30:52;13.65;;;12.25;;
14789;SDS011;7486;51.010;10.366;2022-08-20T07:33:22;15.70;;;13.23;;
14789;SDS011;7486;51.010;10.366;2022-08-20T07:35:50;14.40;;;12.70;;
14789;SDS011;7486;51.010;10.366;2022-08-20T07:38:20;15.98;;;12.55;;
14789;SDS011;7486;51.010;10.366;2022-08-20T07:40:48;15.15;;;13.52;;
14789;SDS011;7486;51.010;10.366;2022-08-20T07:43:17;16.58;;;13.48;;
14789;SDS011;7486;51.010;10.366;2022-08-20T07:45:43;15.43;;;12.93;;
14789;SDS011;7486;51.010;10.366;2022-08-20T07:48:17;17.35;;;13.63;;
14789;SDS011;7486;51.010;10.366;2022-08-20T07:50:57;14.90;;;12.65;;
14789;SDS011;7486;51.010;10.366;2022-08-20T07:53:25;14.73;;;13.02;;
14789;SDS011;7486;51.010;10.366;2022-08-20T07:55:52;13.93;;;12.20;;
14789;SDS011;7486;51.010;10.366;2022-08-20T07:58:24;14.88;;;12.65;;
14789;SDS011;7486;51.010;10.366;2022-08-20T08:00:59;13.68;;;12.20;;
14789;SDS011;7486;51.010;10.366;2022-08-20T08:03:28;13.48;;;12.07;;
14789;SDS011;7486;51.010;10.366;2022-08-20T08:06:16;14.27;;;12.77;;
14789;SDS011;7486;51.010;10.366;2022-08-20T08:08:56;14.77;;;12.98;;
14789;SDS011;7486;51.010;10.366;2022-08-20T08:11:31;13.93;;;12.50;;
14789;SDS011;7486;51.010;10.366;2022-08-20T08:14:00;16.20;;;12.80;;
14789;SDS011;7486;51.010;10.366;2022-08-20T08:16:28;15.00;;;12.50;;
14789;SDS011;7486;51.010;10.366;2022-08-20T08:18:55;13.80;;;12.20;;
14789;SDS011;7486;51.010;10.366;2022-08-20T08:21:22;15.45;;;12.38;;
14789;SDS011;7486;51.010;10.366;2022-08-20T08:23:49;17.02;;;13.30;;
14789;SDS011;7486;51.010;10.366;2022-08-20T08:26:16;15.60;;;13.45;;
14789;SDS011;7486;51.010;10.366;2022-08-20T08:28:45;14.32;;;12.82;;
14789;SDS011;7486;51.010;10.366;2022-08-20T08:31:12;15.50;;;13.20;;
14789;SDS011;7486;51.010;10.366;2022-08-20T08:33:40;14.30;;;12.45;;
14789;SDS011;7486;51.010;10.366;2022-08-20T08:36:09;16.38;;;14.52;;
14789;SDS011;7486;51.010;10.366;2022-08-20T08:38:38;16.85;;;14.48;;
14789;SDS011;7486;51.010;10.366;2022-08-20T08:41:13;16.70;;;13.57;;
14789;SDS011;7486;51.010;10.366;2022-08-20T08:43:47;19.92;;;14.57;;
14789;SDS011;7486;51.010;10.366;2022-08-20T08:46:18;16.08;;;14.27;;
14789;SDS011;7486;51.010;10.366;2022-08-20T08:48:50;15.13;;;13.52;;
14789;SDS011;7486;51.010;10.366;2022-08-20T08:51:33;15.73;;;13.40;;
14789;SDS011;7486;51.010;10.366;2022-08-20T08:54:03;15.80;;;13.88;;
14789;SDS011;7486;51.010;10.366;2022-08-20T08:56:32;15.25;;;13.48;;
14789;SDS011;7486;51.010;10.366;2022-08-20T08:59:05;16.33;;;13.90;;
14789;SDS011;7486;51.010;10.366;2022-08-20T09:01:34;15.77;;;13.38;;
14789;SDS011;7486;51.010;10.366;2022-08-20T09:04:22;15.88;;;13.00;;
14789;SDS011;7486;51.010;10.366;2022-08-20T09:06:54;15.88;;;12.23;;
14789;SDS011;7486;51.010;10.366;2022-08-20T09:09:24;15.77;;;14.00;;
14789;SDS011;7486;51.010;10.366;2022-08-20T09:11:56;14.60;;;11.85;;
14789;SDS011;7486;51.010;10.366;2022-08-20T09:14:30;15.05;;;12.60;;
14789;SDS011;7486;51.010;10.366;2022-08-20T09:16:56;14.73;;;11.35;;
14789;SDS011;7486;51.010;10.366;2022-08-20T09:19:23;13.40;;;12.00;;
14789;SDS011;7486;51.010;10.366;2022-08-20T09:21:50;13.07;;;11.48;;
14789;SDS011;7486;51.010;10.366;2022-08-20T09:24:17;14.52;;;11.65;;
14789;SDS011;7486;51.010;10.366;2022-08-20T09:26:44;13.00;;;11.70;;
14789;SDS011;7486;51.010;10.366;2022-08-20T09:29:11;13.65;;;12.20;;
14789;SDS011;7486;51.010;10.366;2022-08-20T09:31:38;13.88;;;12.45;;
14789;SDS011;7486;51.010;10.366;2022-08-20T09:34:05;13.77;;;12.23;;
14789;SDS011;7486;51.010;10.366;2022-08-20T09:36:32;13.20;;;11.75;;
14789;SDS011;7486;51.010;10.366;2022-08-20T09:38:59;15.43;;;11.07;;
14789;SDS011;7486;51.010;10.366;2022-08-20T09:41:29;11.82;;;10.63;;
14789;SDS011;7486;51.010;10.366;2022-08-20T09:43:59;12.65;;;11.32;;
14789;SDS011;7486;51.010;10.366;2022-08-20T09:46:25;12.43;;;9.77;;
14789;SDS011;7486;51.010;10.366;2022-08-20T09:48:53;11.05;;;9.90;;
14789;SDS011;7486;51.010;10.366;2022-08-20T09:51:20;9.80;;;8.65;;
14789;SDS011;7486;51.010;10.366;2022-08-20T09:53:48;10.07;;;8.05;;
14789;SDS011;7486;51.010;10.366;2022-08-20T09:56:15;9.55;;;7.72;;
14789;SDS011;7486;51.010;10.366;2022-08-20T09:58:52;8.30;;;7.50;;
14789;SDS011;7486;51.010;10.366;2022-08-20T10:01:20;8.60;;;7.70;;
14789;SDS011;7486;51.010;10.366;2022-08-20T10:03:48;9.15;;;7.82;;
14789;SDS011;7486;51.010;10.366;2022-08-20T10:06:16;8.55;;;7.75;;
14789;SDS011;7486;51.010;10.366;2022-08-20T10:08:43;7.93;;;7.03;;
14789;SDS011;7486;51.010;10.366;2022-08-20T10:11:10;7.85;;;7.05;;
14789;SDS011;7486;51.010;10.366;2022-08-20T10:13:37;8.30;;;7.50;;
14789;SDS011;7486;51.010;10.366;2022-08-20T10:16:04;8.90;;;8.00;;
14789;SDS011;7486;51.010;10.366;2022-08-20T10:18:34;8.05;;;6.72;;
14789;SDS011;7486;51.010;10.366;2022-08-20T10:21:01;7.30;;;6.60;;
14789;SDS011;7486;51.010;10.366;2022-08-20T10:23:28;8.27;;;6.53;;
14789;SDS011;7486;51.010;10.366;2022-08-20T10:25:55;6.75;;;6.15;;
14789;SDS011;7486;51.010;10.366;2022-08-20T10:28:21;6.07;;;5.55;;
14789;SDS011;7486;51.010;10.366;2022-08-20T10:30:48;6.40;;;5.80;;
14789;SDS011;7486;51.010;10.366;2022-08-20T10:33:15;5.38;;;4.90;;
14789;SDS011;7486;51.010;10.366;2022-08-20T10:35:42;4.82;;;4.40;;
14789;SDS011;7486;51.010;10.366;2022-08-20T10:38:08;3.10;;;2.90;;
14789;SDS011;7486;51.010;10.366;2022-08-20T10:40:35;2.85;;;2.65;;
14789;SDS011;7486;51.010;10.366;2022-08-20T10:43:02;4.50;;;3.42;;
14789;SDS011;7486;51.010;10.366;2022-08-20T10:45:29;3.00;;;2.80;;
14789;SDS011;7486;51.010;10.366;2022-08-20T10:47:59;3.10;;;2.80;;
14789;SDS011;7486;51.010;10.366;2022-08-20T10:50:27;3.70;;;2.70;;
14789;SDS011;7486;51.010;10.366;2022-08-20T10:52:56;3.05;;;2.75;;
14789;SDS011;7486;51.010;10.366;2022-08-20T10:55:23;3.92;;;3.03;;
14789;SDS011;7486;51.010;10.366;2022-08-20T10:57:50;3.08;;;2.88;;
14789;SDS011;7486;51.010;10.366;2022-08-20T11:00:17;3.40;;;3.10;;
14789;SDS011;7486;51.010;10.366;2022-08-20T11:02:44;4.18;;;3.78;;
14789;SDS011;7486;51.010;10.366;2022-08-20T11:05:11;3.80;;;3.42;;
14789;SDS011;7486;51.010;10.366;2022-08-20T11:07:40;2.95;;;2.20;;
14789;SDS011;7486;51.010;10.366;2022-08-20T11:10:23;1.92;;;1.80;;
14789;SDS011;7486;51.010;10.366;2022-08-20T11:12:54;2.22;;;2.13;;
14789;SDS011;7486;51.010;10.366;2022-08-20T11:15:20;2.20;;;2.00;;
14789;SDS011;7486;51.010;10.366;2022-08-20T11:17:48;3.17;;;2.58;;
14789;SDS011;7486;51.010;10.366;2022-08-20T11:20:16;2.80;;;2.60;;
14789;SDS011;7486;51.010;10.366;2022-08-20T11:22:47;3.45;;;2.50;;
14789;SDS011;7486;51.010;10.366;2022-08-20T11:25:14;2.40;;;2.20;;
14789;SDS011;7486;51.010;10.366;2022-08-20T11:27:42;1.80;;;1.70;;
14789;SDS011;7486;51.010;10.366;2022-08-20T11:30:14;3.20;;;2.50;;
14789;SDS011;7486;51.010;10.366;2022-08-20T11:32:47;2.83;;;2.63;;
14789;SDS011;7486;51.010;10.366;2022-08-20T11:35:14;2.83;;;2.63;;
14789;SDS011;7486;51.010;10.366;2022-08-20T11:38:01;2.58;;;2.38;;
14789;SDS011;7486;51.010;10.366;2022-08-20T11:40:28;2.47;;;2.30;;
14789;SDS011;7486;51.010;10.366;2022-08-20T11:42:56;2.10;;;1.90;;
14789;SDS011;7486;51.010;10.366;2022-08-20T11:45:40;2.20;;;1.70;;
14789;SDS011;7486;51.010;10.366;2022-08-20T11:48:07;1.75;;;1.65;;
14789;SDS011;7486;51.010;10.366;2022-08-20T11:50:34;1.92;;;1.83;;
14789;SDS011;7486;51.010;10.366;2022-08-20T11:53:01;2.00;;;1.90;;
14789;SDS011;7486;51.010;10.366;2022-08-20T11:55:28;1.80;;;1.70;;
14789;SDS011;7486;51.010;10.366;2022-08-20T11:57:56;2.20;;;1.98;;
14789;SDS011;7486;51.010;10.366;2022-08-20T12:00:26;2.28;;;2.17;;
14789;SDS011;7486;51.010;10.366;2022-08-20T12:02:59;2.80;;;2.60;;
14789;SDS011;7486;51.010;10.366;2022-08-20T12:05:27;2.50;;;2.28;;
14789;SDS011;7486;51.010;10.366;2022-08-20T12:07:54;2.42;;;2.20;;
14789;SDS011;7486;51.010;10.366;2022-08-20T12:10:21;2.35;;;2.15;;
14789;SDS011;7486;51.010;10.366;2022-08-20T12:12:47;2.40;;;2.20;;
14789;SDS011;7486;51.010;10.366;2022-08-20T12:15:14;3.70;;;2.17;;
14789;SDS011;7486;51.010;10.366;2022-08-20T12:17:41;2.60;;;2.40;;
14789;SDS011;7486;51.010;10.366;2022-08-20T12:20:08;3.03;;;2.83;;
14789;SDS011;7486;51.010;10.366;2022-08-20T12:22:37;3.75;;;2.00;;
14789;SDS011;7486;51.010;10.366;2022-08-20T12:25:05;1.98;;;1.83;;
14789;SDS011;7486;51.010;10.366;2022-08-20T12:27:33;1.83;;;1.70;;
14789;SDS011;7486;51.010;10.366;2022-08-20T12:30:03;2.45;;;2.00;;
14789;SDS011;7486;51.010;10.366;2022-08-20T12:32:36;1.90;;;1.80;;
14789;SDS011;7486;51.010;10.366;2022-08-20T12:35:04;1.85;;;1.75;;
14789;SDS011;7486;51.010;10.366;2022-08-20T12:37:32;1.83;;;1.73;;
14789;SDS011;7486;51.010;10.366;2022-08-20T12:39:59;3.83;;;2.45;;
14789;SDS011;7486;51.010;10.366;2022-08-20T12:42:29;4.03;;;1.40;;
14789;SDS011;7486;51.010;10.366;2022-08-20T12:44:56;1.65;;;1.55;;
14789;SDS011;7486;51.010;10.366;2022-08-20T12:47:24;1.60;;;1.50;;
14789;SDS011;7486;51.010;10.366;2022-08-20T12:50:06;1.50;;;1.40;;
14789;SDS011;7486;51.010;10.366;2022-08-20T12:52:38;1.92;;;1.50;;
14789;SDS011;7486;51.010;10.366;2022-08-20T12:55:06;1.23;;;1.20;;
14789;SDS011;7486;51.010;10.366;2022-08-20T12:57:38;1.20;;;1.10;;
14789;SDS011;7486;51.010;10.366;2022-08-20T13:00:11;1.27;;;1.17;;
14789;SDS011;7486;51.010;10.366;2022-08-20T13:02:38;0.98;;;0.98;;
14789;SDS011;7486;51.010;10.366;2022-08-20T13:05:05;1.00;;;1.00;;
14789;SDS011;7486;51.010;10.366;2022-08-20T13:07:32;1.65;;;1.00;;
14789;SDS011;7486;51.010;10.366;2022-08-20T13:09:59;0.85;;;0.85;;
14789;SDS011;7486;51.010;10.366;2022-08-20T13:12:27;0.93;;;0.93;;
14789;SDS011;7486;51.010;10.366;2022-08-20T13:14:54;1.38;;;0.90;;
14789;SDS011;7486;51.010;10.366;2022-08-20T13:17:20;1.05;;;1.00;;
14789;SDS011;7486;51.010;10.366;2022-08-20T13:20:05;1.75;;;1.00;;
14789;SDS011;7486;51.010;10.366;2022-08-20T13:22:34;1.00;;;0.90;;
14789;SDS011;7486;51.010;10.366;2022-08-20T13:25:02;0.80;;;0.80;;
14789;SDS011;7486;51.010;10.366;2022-08-20T13:27:30;0.68;;;0.68;;
14789;SDS011;7486;51.010;10.366;2022-08-20T13:29:57;0.80;;;0.80;;
14789;SDS011;7486;51.010;10.366;2022-08-20T13:32:24;0.70;;;0.70;;
14789;SDS011;7486;51.010;10.366;2022-08-20T13:34:51;0.75;;;0.75;;
14789;SDS011;7486;51.010;10.366;2022-08-20T13:37:19;0.85;;;0.85;;
14789;SDS011;7486;51.010;10.366;2022-08-20T13:39:51;0.70;;;0.63;;
14789;SDS011;7486;51.010;10.366;2022-08-20T13:42:19;0.98;;;0.98;;
14789;SDS011;7486;51.010;10.366;2022-08-20T13:44:47;1.00;;;0.90;;
14789;SDS011;7486;51.010;10.366;2022-08-20T13:47:22;0.82;;;0.82;;
14789;SDS011;7486;51.010;10.366;2022-08-20T13:49:55;1.73;;;0.90;;
14789;SDS011;7486;51.010;10.366;2022-08-20T13:52:24;0.90;;;0.90;;
14789;SDS011;7486;51.010;10.366;2022-08-20T13:54:52;2.63;;;2.42;;
14789;SDS011;7486;51.010;10.366;2022-08-20T13:57:20;2.70;;;2.50;;
14789;SDS011;7486;51.010;10.366;2022-08-20T13:59:48;2.55;;;2.33;;
14789;SDS011;7486;51.010;10.366;2022-08-20T14:02:17;2.45;;;2.25;;
14789;SDS011;7486;51.010;10.366;2022-08-20T14:04:45;3.28;;;2.28;;
14789;SDS011;7486;51.010;10.366;2022-08-20T14:09:59;3.40;;;3.10;;
14789;SDS011;7486;51.010;10.366;2022-08-20T14:12:27;4.80;;;4.40;;
14789;SDS011;7486;51.010;10.366;2022-08-20T14:14:56;5.43;;;4.55;;
14789;SDS011;7486;51.010;10.366;2022-08-20T14:19:58;5.43;;;4.93;;
14789;SDS011;7486;51.010;10.366;2022-08-20T14:22:32;6.30;;;4.97;;
14789;SDS011;7486;51.010;10.366;2022-08-20T14:24:58;5.70;;;5.20;;
14789;SDS011;7486;51.010;10.366;2022-08-20T14:27:25;5.15;;;4.65;;
14789;SDS011;7486;51.010;10.366;2022-08-20T14:29:56;5.90;;;5.40;;
14789;SDS011;7486;51.010;10.366;2022-08-20T14:32:24;5.03;;;4.53;;
14789;SDS011;7486;51.010;10.366;2022-08-20T14:34:51;6.45;;;5.47;;
14789;SDS011;7486;51.010;10.366;2022-08-20T14:37:26;6.40;;;5.57;;
14789;SDS011;7486;51.010;10.366;2022-08-20T14:40:16;7.03;;;5.43;;
14789;SDS011;7486;51.010;10.366;2022-08-20T14:42:44;6.32;;;5.70;;
14789;SDS011;7486;51.010;10.366;2022-08-20T14:45:17;6.22;;;5.65;;
14789;SDS011;7486;51.010;10.366;2022-08-20T14:47:46;7.28;;;5.70;;
14789;SDS011;7486;51.010;10.366;2022-08-20T14:50:29;5.95;;;4.70;;
14789;SDS011;7486;51.010;10.366;2022-08-20T14:52:58;6.30;;;5.10;;
14789;SDS011;7486;51.010;10.366;2022-08-20T14:55:26;6.75;;;4.90;;
14789;SDS011;7486;51.010;10.366;2022-08-20T14:57:55;4.88;;;4.38;;
14789;SDS011;7486;51.010;10.366;2022-08-20T15:00:23;5.43;;;4.50;;
14789;SDS011;7486;51.010;10.366;2022-08-20T15:02:55;6.68;;;5.18;;